createdAt,value
2023-03-14T00:00:52.057Z,576.00
2023-03-14T00:01:52.098Z,574.00
2023-03-14T00:02:52.222Z,572.00
2023-03-14T00:03:51.194Z,573.00
2023-03-14T00:04:52.248Z,577.00
2023-03-14T00:05:51.313Z,571.00
2023-03-14T00:06:52.377Z,573.00
2023-03-14T00:07:51.493Z,571.00
2023-03-14T00:08:51.481Z,568.00
2023-03-14T00:09:52.550Z,572.00
2023-03-14T00:10:52.609Z,574.00
2023-03-14T00:11:52.667Z,580.00
2023-03-14T00:12:52.707Z,574.00
2023-03-14T00:13:52.784Z,568.00
2023-03-14T00:14:52.822Z,569.00
2023-03-14T00:15:52.891Z,573.00
2023-03-14T00:16:52.940Z,570.00
2023-03-14T00:17:53.025Z,568.00
2023-03-14T00:18:53.061Z,573.00
2023-03-14T00:19:52.102Z,575.00
2023-03-14T00:20:53.161Z,567.00
2023-03-14T00:21:53.212Z,573.00
2023-03-14T00:22:53.278Z,567.00
2023-03-14T00:23:53.333Z,571.00
2023-03-14T00:24:53.396Z,568.00
2023-03-14T00:25:53.438Z,571.00
2023-03-14T00:26:53.505Z,567.00
2023-03-14T00:27:53.578Z,574.00
2023-03-14T00:28:52.604Z,568.00
2023-03-14T00:29:53.669Z,569.00
2023-03-14T00:30:53.788Z,567.00
2023-03-14T00:31:52.819Z,571.00
2023-03-14T00:32:52.930Z,565.00
2023-03-14T00:33:53.955Z,566.00
2023-03-14T00:34:53.987Z,565.00
2023-03-14T00:35:54.131Z,568.00
2023-03-14T00:36:53.152Z,564.00
2023-03-14T00:37:54.174Z,568.00
2023-03-14T00:38:54.244Z,566.00
2023-03-14T00:39:54.294Z,568.00
2023-03-14T00:40:54.335Z,563.00
2023-03-14T00:41:54.416Z,571.00
2023-03-14T00:42:54.447Z,562.00
2023-03-14T00:43:54.525Z,569.00
2023-03-14T00:44:54.568Z,565.00
2023-03-14T00:45:54.629Z,560.00
2023-03-14T00:46:53.723Z,572.00
2023-03-14T00:47:54.748Z,563.00
2023-03-14T00:48:54.805Z,561.00
2023-03-14T00:49:54.892Z,565.00
2023-03-14T00:50:53.916Z,563.00
2023-03-14T00:51:54.961Z,556.00
2023-03-14T00:52:54.014Z,562.00
2023-03-14T00:53:55.074Z,564.00
2023-03-14T00:54:55.146Z,562.00
2023-03-14T00:55:54.185Z,556.00
2023-03-14T00:56:55.256Z,564.00
2023-03-14T00:57:55.293Z,567.00
2023-03-14T00:58:55.339Z,564.00
2023-03-14T00:59:55.402Z,559.00
2023-03-14T01:00:55.485Z,558.00
2023-03-14T01:01:55.565Z,566.00
2023-03-14T01:02:54.671Z,561.00
2023-03-14T01:03:55.625Z,554.00
2023-03-14T01:04:54.698Z,558.00
2023-03-14T01:05:54.763Z,561.00
2023-03-14T01:06:55.795Z,565.00
2023-03-14T01:07:55.863Z,566.00
2023-03-14T01:08:55.912Z,556.00
2023-03-14T01:09:55.990Z,559.00
2023-03-14T01:10:56.016Z,560.00
2023-03-14T01:11:56.082Z,555.00
2023-03-14T01:12:56.135Z,561.00
2023-03-14T01:13:56.201Z,560.00
2023-03-14T01:14:56.259Z,560.00
2023-03-14T01:15:56.403Z,557.00
2023-03-14T01:16:56.378Z,555.00
2023-03-14T01:17:56.442Z,557.00
2023-03-14T01:18:56.510Z,558.00
2023-03-14T01:19:56.625Z,561.00
2023-03-14T01:20:56.649Z,549.00
2023-03-14T01:21:56.668Z,552.00
2023-03-14T01:22:56.730Z,560.00
2023-03-14T01:23:56.794Z,553.00
2023-03-14T01:24:55.861Z,553.00
2023-03-14T01:25:56.912Z,557.00
2023-03-14T01:26:56.980Z,553.00
2023-03-14T01:27:57.045Z,555.00
2023-03-14T01:28:56.134Z,554.00
2023-03-14T01:29:56.156Z,553.00
2023-03-14T01:30:57.269Z,557.00
2023-03-14T01:31:56.282Z,551.00
2023-03-14T01:32:57.372Z,556.00
2023-03-14T01:33:56.404Z,554.00
2023-03-14T01:34:57.472Z,552.00
2023-03-14T01:35:56.587Z,553.00
2023-03-14T01:36:57.633Z,551.00
2023-03-14T01:37:56.652Z,553.00
2023-03-14T01:38:57.732Z,558.00
2023-03-14T01:39:56.787Z,553.00
2023-03-14T01:40:57.854Z,554.00
2023-03-14T01:41:57.905Z,553.00
2023-03-14T01:42:56.978Z,554.00
2023-03-14T01:43:57.035Z,554.00
2023-03-14T01:44:57.102Z,547.00
2023-03-14T01:45:57.357Z,549.00
2023-03-14T01:46:58.231Z,553.00
2023-03-14T01:47:58.290Z,550.00
2023-03-14T01:48:58.347Z,545.00
2023-03-14T01:49:58.412Z,548.00
2023-03-14T01:50:58.463Z,545.00
2023-03-14T01:51:58.522Z,551.00
2023-03-14T01:52:58.625Z,550.00
2023-03-14T01:53:57.715Z,550.00
2023-03-14T01:54:58.705Z,552.00
2023-03-14T01:55:57.771Z,548.00
2023-03-14T01:56:58.828Z,547.00
2023-03-14T01:57:57.938Z,551.00
2023-03-14T01:58:57.981Z,545.00
2023-03-14T01:59:59.058Z,553.00
2023-03-14T02:00:59.127Z,547.00
2023-03-14T02:01:59.138Z,544.00
2023-03-14T02:02:59.189Z,539.00
2023-03-14T02:03:58.264Z,548.00
2023-03-14T02:04:59.314Z,547.00
2023-03-14T02:05:59.434Z,543.00
2023-03-14T02:06:59.436Z,547.00
2023-03-14T02:07:59.483Z,541.00
2023-03-14T02:08:59.567Z,543.00
2023-03-14T02:09:59.594Z,540.00
2023-03-14T02:10:59.661Z,546.00
2023-03-14T02:11:58.720Z,545.00
2023-03-14T02:12:59.760Z,541.00
2023-03-14T02:13:59.822Z,542.00
2023-03-14T02:14:58.855Z,549.00
2023-03-14T02:15:59.915Z,545.00
2023-03-14T02:16:58.980Z,543.00
2023-03-14T02:18:00.019Z,545.00
2023-03-14T02:19:00.085Z,543.00
2023-03-14T02:20:00.137Z,549.00
2023-03-14T02:20:59.189Z,538.00
2023-03-14T02:22:00.229Z,547.00
2023-03-14T02:23:00.296Z,536.00
2023-03-14T02:24:00.338Z,544.00
2023-03-14T02:25:00.425Z,536.00
2023-03-14T02:26:00.480Z,544.00
2023-03-14T02:27:00.507Z,539.00
2023-03-14T02:28:00.555Z,543.00
2023-03-14T02:29:00.605Z,538.00
2023-03-14T02:29:59.671Z,543.00
2023-03-14T02:31:00.727Z,542.00
2023-03-14T02:32:00.840Z,544.00
2023-03-14T02:33:00.889Z,545.00
2023-03-14T02:34:00.880Z,536.00
2023-03-14T02:35:00.931Z,540.00
2023-03-14T02:36:01.072Z,539.00
2023-03-14T02:37:01.041Z,543.00
2023-03-14T02:38:01.109Z,547.00
2023-03-14T02:39:01.170Z,545.00
2023-03-14T02:40:01.220Z,535.00
2023-03-14T02:41:01.317Z,534.00
2023-03-14T02:42:01.332Z,536.00
2023-03-14T02:43:01.390Z,537.00
2023-03-14T02:44:01.460Z,537.00
2023-03-14T02:45:01.489Z,543.00
2023-03-14T02:46:01.631Z,539.00
2023-03-14T02:47:01.605Z,536.00
2023-03-14T02:48:01.667Z,538.00
2023-03-14T02:49:01.737Z,533.00
2023-03-14T02:50:00.769Z,536.00
2023-03-14T02:51:01.850Z,538.00
2023-03-14T02:52:01.872Z,537.00
2023-03-14T02:53:00.924Z,539.00
2023-03-14T02:54:01.986Z,532.00
2023-03-14T02:55:01.038Z,541.00
2023-03-14T02:56:01.097Z,534.00
2023-03-14T02:57:02.203Z,538.00
2023-03-14T02:58:01.230Z,532.00
2023-03-14T02:59:02.280Z,532.00
2023-03-14T03:00:02.336Z,537.00
2023-03-14T03:01:02.465Z,537.00
2023-03-14T03:02:01.863Z,536.00
2023-03-14T03:03:02.548Z,534.00
2023-03-14T03:04:01.599Z,531.00
2023-03-14T03:05:01.664Z,538.00
2023-03-14T03:06:02.714Z,533.00
2023-03-14T03:07:02.787Z,533.00
2023-03-14T03:08:01.903Z,533.00
2023-03-14T03:09:02.909Z,533.00
2023-03-14T03:10:01.976Z,535.00
2023-03-14T03:11:03.027Z,525.00
2023-03-14T03:12:02.098Z,530.00
2023-03-14T03:13:03.166Z,528.00
2023-03-14T03:14:02.198Z,531.00
2023-03-14T03:15:02.233Z,527.00
2023-03-14T03:16:03.289Z,530.00
2023-03-14T03:17:03.393Z,525.00
2023-03-14T03:18:03.389Z,522.00
2023-03-14T03:19:03.468Z,530.00
2023-03-14T03:20:03.528Z,527.00
2023-03-14T03:21:03.579Z,532.00
2023-03-14T03:22:03.638Z,525.00
2023-03-14T03:23:03.698Z,528.00
2023-03-14T03:24:03.750Z,531.00
2023-03-14T03:25:03.815Z,531.00
2023-03-14T03:26:03.856Z,527.00
2023-03-14T03:27:03.930Z,527.00
2023-03-14T03:28:03.980Z,525.00
2023-03-14T03:29:04.062Z,529.00
2023-03-14T03:30:03.110Z,529.00
2023-03-14T03:31:03.262Z,524.00
2023-03-14T03:32:04.235Z,525.00
2023-03-14T03:33:04.262Z,531.00
2023-03-14T03:34:04.323Z,525.00
2023-03-14T03:35:04.378Z,523.00
2023-03-14T03:36:03.419Z,522.00
2023-03-14T03:37:04.473Z,519.00
2023-03-14T03:38:04.501Z,522.00
2023-03-14T03:39:04.553Z,521.00
2023-03-14T03:40:04.603Z,519.00
2023-03-14T03:41:04.655Z,526.00
2023-03-14T03:42:03.669Z,521.00
2023-03-14T03:43:04.704Z,528.00
2023-03-14T03:44:04.743Z,524.00
2023-03-14T03:45:04.809Z,520.00
2023-03-14T03:46:05.193Z,519.00
2023-03-14T03:47:04.856Z,521.00
2023-03-14T03:48:04.907Z,518.00
2023-03-14T03:49:04.945Z,521.00
2023-03-14T03:50:04.994Z,522.00
2023-03-14T03:51:05.017Z,519.00
2023-03-14T03:52:05.040Z,517.00
2023-03-14T03:53:05.078Z,518.00
2023-03-14T03:54:05.110Z,523.00
2023-03-14T03:55:05.163Z,517.00
2023-03-14T03:56:05.168Z,522.00
2023-03-14T03:57:04.207Z,517.00
2023-03-14T03:58:05.232Z,524.00
2023-03-14T03:59:05.259Z,520.00
2023-03-14T04:00:05.284Z,520.00
2023-03-14T04:01:05.480Z,520.00
2023-03-14T04:02:05.394Z,523.00
2023-03-14T04:03:05.365Z,513.00
2023-03-14T04:04:05.461Z,519.00
2023-03-14T04:05:05.413Z,519.00
2023-03-14T04:06:05.568Z,521.00
2023-03-14T04:07:04.484Z,513.00
2023-03-14T04:08:05.511Z,516.00
2023-03-14T04:09:04.538Z,517.00
2023-03-14T04:10:05.561Z,517.00
2023-03-14T04:11:05.580Z,511.00
2023-03-14T04:12:05.619Z,516.00
2023-03-14T04:13:05.642Z,517.00
2023-03-14T04:14:04.665Z,515.00
2023-03-14T04:15:05.700Z,515.00
2023-03-14T04:16:05.864Z,511.00
2023-03-14T04:17:05.773Z,514.00
2023-03-14T04:18:05.770Z,519.00
2023-03-14T04:19:05.824Z,515.00
2023-03-14T04:20:05.819Z,516.00
2023-03-14T04:21:04.844Z,519.00
2023-03-14T04:22:05.913Z,515.00
2023-03-14T04:23:05.908Z,514.00
2023-03-14T04:24:05.936Z,523.00
2023-03-14T04:25:06.941Z,513.00
2023-03-14T04:26:06.000Z,510.00
2023-03-14T04:27:06.011Z,522.00
2023-03-14T04:28:06.052Z,515.00
2023-03-14T04:29:05.063Z,516.00
2023-03-14T04:30:06.073Z,518.00
2023-03-14T04:31:06.146Z,516.00
2023-03-14T04:32:06.125Z,516.00
2023-03-14T04:33:05.160Z,513.00
2023-03-14T04:34:06.174Z,515.00
2023-03-14T04:35:06.181Z,520.00
2023-03-14T04:36:05.232Z,514.00
2023-03-14T04:37:05.236Z,513.00
2023-03-14T04:38:06.274Z,512.00
2023-03-14T04:39:05.260Z,517.00
2023-03-14T04:40:06.285Z,515.00
2023-03-14T04:41:05.307Z,516.00
2023-03-14T04:42:05.323Z,519.00
2023-03-14T04:43:06.367Z,517.00
2023-03-14T04:44:06.401Z,515.00
2023-03-14T04:45:05.426Z,516.00
2023-03-14T04:46:06.444Z,511.00
2023-03-14T04:47:05.466Z,516.00
2023-03-14T04:48:05.509Z,512.00
2023-03-14T04:49:06.577Z,518.00
2023-03-14T04:50:06.632Z,510.00
2023-03-14T04:51:06.592Z,520.00
2023-03-14T04:52:05.626Z,512.00
2023-03-14T04:53:06.681Z,513.00
2023-03-14T04:54:05.671Z,517.00
2023-03-14T04:55:05.705Z,517.00
2023-03-14T04:56:06.744Z,514.00
2023-03-14T04:57:06.779Z,515.00
2023-03-14T04:58:06.817Z,516.00
2023-03-14T04:59:06.812Z,515.00
2023-03-14T05:00:06.854Z,512.00
2023-03-14T05:01:06.879Z,511.00
2023-03-14T05:02:06.958Z,510.00
2023-03-14T05:03:05.974Z,519.00
2023-03-14T05:04:06.954Z,518.00
2023-03-14T05:05:07.005Z,511.00
2023-03-14T05:06:06.024Z,516.00
2023-03-14T05:07:07.054Z,513.00
2023-03-14T05:08:07.160Z,512.00
2023-03-14T05:09:06.142Z,505.00
2023-03-14T05:10:07.180Z,514.00
2023-03-14T05:11:07.179Z,515.00
2023-03-14T05:12:06.179Z,512.00
2023-03-14T05:13:07.244Z,512.00
2023-03-14T05:14:07.251Z,507.00
2023-03-14T05:15:07.306Z,508.00
2023-03-14T05:16:07.331Z,516.00
2023-03-14T05:17:07.320Z,509.00
2023-03-14T05:18:07.409Z,512.00
2023-03-14T05:19:07.381Z,519.00
2023-03-14T05:20:07.387Z,513.00
2023-03-14T05:21:07.445Z,516.00
2023-03-14T05:22:07.457Z,515.00
2023-03-14T05:23:07.464Z,512.00
2023-03-14T05:24:07.472Z,511.00
2023-03-14T05:25:06.502Z,511.00
2023-03-14T05:26:06.513Z,511.00
2023-03-14T05:27:07.534Z,511.00
2023-03-14T05:28:06.562Z,509.00
2023-03-14T05:29:07.576Z,509.00
2023-03-14T05:30:07.608Z,513.00
2023-03-14T05:31:06.645Z,507.00
2023-03-14T05:32:07.640Z,510.00
2023-03-14T05:33:07.752Z,515.00
2023-03-14T05:34:06.686Z,515.00
2023-03-14T05:35:07.706Z,515.00
2023-03-14T05:36:06.760Z,505.00
2023-03-14T05:37:07.889Z,509.00
2023-03-14T05:38:06.759Z,508.00
2023-03-14T05:39:07.814Z,509.00
2023-03-14T05:40:07.811Z,507.00
2023-03-14T05:41:07.846Z,510.00
2023-03-14T05:42:07.873Z,514.00
2023-03-14T05:43:07.908Z,511.00
2023-03-14T05:44:07.945Z,510.00
2023-03-14T05:45:06.940Z,502.00
2023-03-14T05:46:07.081Z,505.00
2023-03-14T05:47:07.997Z,507.00
2023-03-14T05:48:08.023Z,506.00
2023-03-14T05:49:08.060Z,508.00
2023-03-14T05:50:08.063Z,509.00
2023-03-14T05:51:08.350Z,509.00
2023-03-14T05:52:08.097Z,505.00
2023-03-14T05:53:08.245Z,505.00
2023-03-14T05:54:08.178Z,507.00
2023-03-14T05:55:08.156Z,507.00
2023-03-14T05:56:08.189Z,506.00
2023-03-14T05:57:08.198Z,511.00
2023-03-14T05:58:08.235Z,504.00
2023-03-14T05:59:08.265Z,505.00
2023-03-14T06:00:08.273Z,512.00
2023-03-14T06:01:08.314Z,508.00
2023-03-14T06:02:08.366Z,513.00
2023-03-14T06:03:08.411Z,514.00
2023-03-14T06:04:08.414Z,502.00
2023-03-14T06:05:08.389Z,509.00
2023-03-14T06:06:08.455Z,509.00
2023-03-14T06:07:08.429Z,510.00
2023-03-14T06:08:07.454Z,514.00
2023-03-14T06:09:07.561Z,509.00
2023-03-14T06:10:08.491Z,512.00
2023-03-14T06:11:08.514Z,506.00
2023-03-14T06:12:07.539Z,510.00
2023-03-14T06:13:08.575Z,509.00
2023-03-14T06:14:08.577Z,511.00
2023-03-14T06:15:08.597Z,510.00
2023-03-14T06:16:08.678Z,504.00
2023-03-14T06:17:08.651Z,512.00
2023-03-14T06:18:08.683Z,510.00
2023-03-14T06:19:07.716Z,510.00
2023-03-14T06:20:08.716Z,508.00
2023-03-14T06:21:08.729Z,516.00
2023-03-14T06:22:08.747Z,516.00
2023-03-14T06:23:08.779Z,510.00
2023-03-14T06:24:08.791Z,514.00
2023-03-14T06:25:08.837Z,517.00
2023-03-14T06:26:08.849Z,507.00
2023-03-14T06:27:08.838Z,507.00
2023-03-14T06:28:07.863Z,510.00
2023-03-14T06:29:07.878Z,507.00
2023-03-14T06:30:08.911Z,508.00
2023-03-14T06:31:08.017Z,509.00
2023-03-14T06:32:08.941Z,509.00
2023-03-14T06:33:08.952Z,513.00
2023-03-14T06:34:08.961Z,508.00
2023-03-14T06:35:08.978Z,510.00
2023-03-14T06:36:09.028Z,513.00
2023-03-14T06:37:08.013Z,514.00
2023-03-14T06:38:09.073Z,517.00
2023-03-14T06:39:08.035Z,514.00
2023-03-14T06:40:09.060Z,517.00
2023-03-14T06:41:09.268Z,513.00
2023-03-14T06:42:09.078Z,520.00
2023-03-14T06:43:08.105Z,523.00
2023-03-14T06:44:09.147Z,527.00
2023-03-14T06:45:09.125Z,526.00
2023-03-14T06:46:09.226Z,525.00
2023-03-14T06:47:09.145Z,531.00
2023-03-14T06:48:09.137Z,530.00
2023-03-14T06:49:08.142Z,525.00
2023-03-14T06:50:09.156Z,537.00
2023-03-14T06:51:08.551Z,534.00
2023-03-14T06:52:09.148Z,553.00
2023-03-14T06:53:09.198Z,554.00
2023-03-14T06:54:09.209Z,556.00
2023-03-14T06:55:09.159Z,565.00
2023-03-14T06:56:09.165Z,565.00
2023-03-14T06:57:09.241Z,570.00
2023-03-14T06:58:09.305Z,589.00
2023-03-14T06:59:09.489Z,609.00
2023-03-14T07:00:09.719Z,647.00
2023-03-14T07:01:08.521Z,637.00
2023-03-14T07:02:09.619Z,630.00
2023-03-14T07:03:08.571Z,651.00
2023-03-14T07:04:09.690Z,658.00
2023-03-14T07:05:09.675Z,669.00
2023-03-14T07:06:09.686Z,698.00
2023-03-14T07:07:09.705Z,708.00
2023-03-14T07:08:09.701Z,744.00
2023-03-14T07:09:09.784Z,775.00
2023-03-14T07:10:09.964Z,774.00
2023-03-14T07:11:09.737Z,783.00
2023-03-14T07:12:09.740Z,828.00
2023-03-14T07:13:09.862Z,833.00
2023-03-14T07:14:09.804Z,845.00
2023-03-14T07:15:18.252Z,913.00
2023-03-14T07:16:10.092Z,915.00
2023-03-14T07:17:09.738Z,921.00
2023-03-14T07:18:09.722Z,945.00
2023-03-14T07:19:09.752Z,946.00
2023-03-14T07:20:08.742Z,978.00
2023-03-14T07:21:09.721Z,990.00
2023-03-14T07:22:08.728Z,996.00
2023-03-14T07:23:09.724Z,1067.00
2023-03-14T07:24:09.722Z,1083.00
2023-03-14T07:25:09.709Z,1080.00
2023-03-14T07:26:08.853Z,1079.00
2023-03-14T07:27:11.401Z,1096.00
2023-03-14T07:28:09.702Z,1133.00
2023-03-14T07:29:10.124Z,1141.00
2023-03-14T07:30:08.676Z,1136.00
2023-03-14T07:31:09.886Z,1131.00
2023-03-14T07:32:09.647Z,1126.00
2023-03-14T07:33:11.427Z,1140.00
2023-03-14T07:34:09.650Z,1199.00
2023-03-14T07:35:09.928Z,1201.00
2023-03-14T07:36:10.136Z,1186.00
2023-03-14T07:37:10.130Z,1193.00
2023-03-14T07:38:08.617Z,1201.00
2023-03-14T07:39:08.762Z,1230.00
2023-03-14T07:40:09.656Z,1227.00
2023-03-14T07:41:09.578Z,1228.00
2023-03-14T07:42:09.616Z,1242.00
2023-03-14T07:43:09.597Z,1255.00
2023-03-14T07:44:08.578Z,1267.00
2023-03-14T07:45:09.611Z,1279.00
2023-03-14T07:46:09.617Z,1288.00
2023-03-14T07:47:09.626Z,1254.00
2023-03-14T07:48:09.585Z,1282.00
2023-03-14T07:49:09.648Z,1322.00
2023-03-14T07:50:09.867Z,1318.00
2023-03-14T07:51:08.742Z,1321.00
2023-03-14T07:52:09.550Z,1328.00
2023-03-14T07:53:09.537Z,1308.00
2023-03-14T07:54:09.495Z,1298.00
2023-03-14T07:55:09.589Z,1339.00
2023-03-14T07:56:09.573Z,1327.00
2023-03-14T07:57:09.609Z,1312.00
2023-03-14T07:58:09.665Z,1328.00
2023-03-14T07:59:09.777Z,1308.00
2023-03-14T08:00:09.755Z,1337.00
2023-03-14T08:01:10.005Z,1341.00
2023-03-14T08:02:09.875Z,1349.00
2023-03-14T08:03:09.938Z,1352.00
2023-03-14T08:04:10.094Z,1342.00
2023-03-14T08:05:10.062Z,1345.00
2023-03-14T08:06:10.099Z,1354.00
2023-03-14T08:07:10.205Z,1368.00
2023-03-14T08:08:10.257Z,1349.00
2023-03-14T08:09:10.284Z,1349.00
2023-03-14T08:10:10.338Z,1336.00
2023-03-14T08:11:10.404Z,1336.00
2023-03-14T08:12:10.434Z,1333.00
2023-03-14T08:13:10.455Z,1319.00
2023-03-14T08:14:10.473Z,1307.00
2023-03-14T08:15:10.511Z,1313.00
2023-03-14T08:16:10.528Z,1312.00
2023-03-14T08:17:10.590Z,1323.00
2023-03-14T08:18:09.548Z,1314.00
2023-03-14T08:19:10.498Z,1316.00
2023-03-14T08:20:09.542Z,1291.00
2023-03-14T08:21:10.482Z,1292.00
2023-03-14T08:22:10.482Z,1296.00
2023-03-14T08:23:10.525Z,1283.00
2023-03-14T08:24:10.484Z,1282.00
2023-03-14T08:25:10.521Z,1268.00
2023-03-14T08:26:10.467Z,1266.00
2023-03-14T08:27:11.217Z,1277.00
2023-03-14T08:28:09.490Z,1265.00
2023-03-14T08:29:10.505Z,1264.00
2023-03-14T08:30:10.510Z,1242.00
2023-03-14T08:31:09.659Z,1261.00
2023-03-14T08:32:10.726Z,1256.00
2023-03-14T08:33:10.498Z,1224.00
2023-03-14T08:34:10.476Z,1228.00
2023-03-14T08:35:10.505Z,1231.00
2023-03-14T08:36:10.684Z,1210.00
2023-03-14T08:37:19.986Z,1215.00
2023-03-14T08:38:10.510Z,1215.00
2023-03-14T08:39:10.498Z,1208.00
2023-03-14T08:40:09.506Z,1184.00
2023-03-14T08:41:10.485Z,1163.00
2023-03-14T08:42:10.468Z,1160.00
2023-03-14T08:43:10.456Z,1157.00
2023-03-14T08:44:10.533Z,1141.00
2023-03-14T08:45:09.492Z,1135.00
2023-03-14T08:46:10.446Z,1132.00
2023-03-14T08:47:10.560Z,1123.00
2023-03-14T08:48:10.441Z,1143.00
2023-03-14T08:49:10.456Z,1134.00
2023-03-14T08:50:11.792Z,1142.00
2023-03-14T08:51:09.422Z,1142.00
2023-03-14T08:52:10.415Z,1122.00
2023-03-14T08:53:10.440Z,1107.00
2023-03-14T08:54:09.389Z,1089.00
2023-03-14T08:55:10.394Z,1084.00
2023-03-14T08:56:09.386Z,1086.00
2023-03-14T08:57:10.377Z,1076.00
2023-03-14T08:58:10.364Z,1070.00
2023-03-14T08:59:10.364Z,1052.00
2023-03-14T09:00:09.388Z,1050.00
2023-03-14T09:01:10.382Z,1051.00
2023-03-14T09:02:12.330Z,1051.00
2023-03-14T09:03:09.359Z,1052.00
2023-03-14T09:04:10.420Z,1047.00
2023-03-14T09:05:10.389Z,1020.00
2023-03-14T09:06:10.321Z,1007.00
2023-03-14T09:07:10.308Z,998.00
2023-03-14T09:08:10.309Z,965.00
2023-03-14T09:09:10.330Z,968.00
2023-03-14T09:10:10.288Z,964.00
2023-03-14T09:11:10.328Z,949.00
2023-03-14T09:12:10.309Z,943.00
2023-03-14T09:13:10.282Z,930.00
2023-03-14T09:14:09.259Z,938.00
2023-03-14T09:15:10.278Z,932.00
2023-03-14T09:16:09.288Z,936.00
2023-03-14T09:17:10.231Z,923.00
2023-03-14T09:18:10.251Z,936.00
2023-03-14T09:19:10.247Z,940.00
2023-03-14T09:20:10.254Z,932.00
2023-03-14T09:21:10.247Z,927.00
2023-03-14T09:22:10.206Z,913.00
2023-03-14T09:23:10.211Z,920.00
2023-03-14T09:24:10.248Z,931.00
2023-03-14T09:25:10.208Z,914.00
2023-03-14T09:26:09.196Z,919.00
2023-03-14T09:27:10.218Z,910.00
2023-03-14T09:28:10.199Z,889.00
2023-03-14T09:29:10.237Z,887.00
2023-03-14T09:30:10.171Z,881.00
2023-03-14T09:31:10.226Z,880.00
2023-03-14T09:32:10.160Z,857.00
2023-03-14T09:33:10.163Z,857.00
2023-03-14T09:34:10.164Z,862.00
2023-03-14T09:35:09.141Z,840.00
2023-03-14T09:36:10.137Z,848.00
2023-03-14T09:37:10.149Z,837.00
2023-03-14T09:38:09.122Z,821.00
2023-03-14T09:39:09.106Z,827.00
2023-03-14T09:40:11.395Z,814.00
2023-03-14T09:41:10.750Z,818.00
2023-03-14T09:42:10.614Z,833.00
2023-03-14T09:43:09.236Z,837.00
2023-03-14T09:44:10.246Z,783.00
2023-03-14T09:45:10.304Z,638.00
2023-03-14T09:46:11.810Z,659.00
2023-03-14T09:47:10.344Z,675.00
2023-03-14T09:48:10.362Z,788.00
2023-03-14T09:49:10.339Z,800.00
2023-03-14T09:50:10.362Z,828.00
2023-03-14T09:51:10.334Z,841.00
2023-03-14T09:52:10.323Z,853.00
2023-03-14T09:53:10.328Z,891.00
2023-03-14T09:54:10.336Z,898.00
2023-03-14T09:55:10.309Z,916.00
2023-03-14T09:56:10.485Z,965.00
2023-03-14T09:57:09.298Z,1026.00
2023-03-14T09:58:10.261Z,1031.00
2023-03-14T09:59:09.285Z,1033.00
2023-03-14T10:00:09.251Z,1084.00
2023-03-14T10:01:09.305Z,1059.00
2023-03-14T10:02:10.237Z,1068.00
2023-03-14T10:03:10.225Z,1076.00
2023-03-14T10:04:09.291Z,1077.00
2023-03-14T10:05:10.287Z,1090.00
2023-03-14T10:06:10.226Z,1112.00
2023-03-14T10:07:10.240Z,1124.00
2023-03-14T10:08:10.253Z,1127.00
2023-03-14T10:09:10.310Z,1145.00
2023-03-14T10:10:09.253Z,1157.00
2023-03-14T10:11:10.221Z,1188.00
2023-03-14T10:12:11.296Z,1187.00
2023-03-14T10:13:10.175Z,1208.00
2023-03-14T10:14:10.197Z,1193.00
2023-03-14T10:15:10.183Z,1229.00
2023-03-14T10:16:09.290Z,1220.00
2023-03-14T10:17:10.397Z,1229.00
2023-03-14T10:18:10.321Z,1325.00
2023-03-14T10:19:10.442Z,1252.00
2023-03-14T10:20:10.409Z,1274.00
2023-03-14T10:21:10.454Z,1283.00
2023-03-14T10:22:09.471Z,1288.00
2023-03-14T10:23:10.639Z,1300.00
2023-03-14T10:24:10.573Z,1289.00
2023-03-14T10:25:09.645Z,1293.00
2023-03-14T10:26:09.698Z,1300.00
2023-03-14T10:27:10.690Z,1303.00
2023-03-14T10:28:10.766Z,1317.00
2023-03-14T10:29:10.811Z,1343.00
2023-03-14T10:30:09.827Z,1324.00
2023-03-14T10:31:10.970Z,1322.00
2023-03-14T10:32:10.887Z,1321.00
2023-03-14T10:33:09.889Z,1338.00
2023-03-14T10:34:10.914Z,1347.00
2023-03-14T10:35:10.982Z,1361.00
2023-03-14T10:36:13.956Z,1369.00
2023-03-14T10:37:10.965Z,1370.00
2023-03-14T10:38:10.950Z,1366.00
2023-03-14T10:39:10.948Z,1371.00
2023-03-14T10:40:11.079Z,1375.00
2023-03-14T10:41:11.092Z,1379.00
2023-03-14T10:42:10.928Z,1407.00
2023-03-14T10:43:10.942Z,1394.00
2023-03-14T10:44:10.912Z,1405.00
2023-03-14T10:45:10.918Z,1426.00
2023-03-14T10:46:11.050Z,1438.00
2023-03-14T10:47:10.008Z,1430.00
2023-03-14T10:48:10.900Z,1434.00
2023-03-14T10:49:10.887Z,1471.00
2023-03-14T10:50:10.916Z,1462.00
2023-03-14T10:51:10.901Z,1437.00
2023-03-14T10:52:10.997Z,1447.00
2023-03-14T10:53:10.954Z,1446.00
2023-03-14T10:54:10.985Z,1448.00
2023-03-14T10:55:11.026Z,1441.00
2023-03-14T10:56:11.105Z,1421.00
2023-03-14T10:57:11.254Z,1409.00
2023-03-14T10:58:11.176Z,1398.00
2023-03-14T10:59:11.226Z,1382.00
2023-03-14T11:00:11.248Z,1367.00
2023-03-14T11:01:11.464Z,1355.00
2023-03-14T11:02:13.476Z,1354.00
2023-03-14T11:03:11.359Z,1356.00
2023-03-14T11:04:10.330Z,1364.00
2023-03-14T11:05:11.377Z,1352.00
2023-03-14T11:06:11.337Z,1349.00
2023-03-14T11:07:10.396Z,1346.00
2023-03-14T11:08:11.355Z,1336.00
2023-03-14T11:09:11.321Z,1340.00
2023-03-14T11:10:10.312Z,1324.00
2023-03-14T11:11:11.405Z,1323.00
2023-03-14T11:12:11.286Z,1310.00
2023-03-14T11:13:11.350Z,1305.00
2023-03-14T11:14:11.373Z,1306.00
2023-03-14T11:15:11.299Z,1278.00
2023-03-14T11:16:11.339Z,1300.00
2023-03-14T11:17:11.319Z,1285.00
2023-03-14T11:18:10.253Z,1277.00
2023-03-14T11:19:10.280Z,1274.00
2023-03-14T11:20:11.239Z,1273.00
2023-03-14T11:21:11.248Z,1275.00
2023-03-14T11:22:11.243Z,1269.00
2023-03-14T11:23:11.213Z,1277.00
2023-03-14T11:24:11.215Z,1268.00
2023-03-14T11:25:11.202Z,1268.00
2023-03-14T11:26:10.205Z,1263.00
2023-03-14T11:27:11.210Z,1260.00
2023-03-14T11:28:11.187Z,1253.00
2023-03-14T11:29:10.236Z,1263.00
2023-03-14T11:30:11.272Z,1244.00
2023-03-14T11:31:11.373Z,1245.00
2023-03-14T11:32:10.376Z,1225.00
2023-03-14T11:33:11.459Z,1225.00
2023-03-14T11:34:11.501Z,1207.00
2023-03-14T11:35:10.575Z,1173.00
2023-03-14T11:36:10.652Z,1187.00
2023-03-14T11:37:11.691Z,1182.00
2023-03-14T11:38:11.759Z,1161.00
2023-03-14T11:39:11.801Z,1154.00
2023-03-14T11:40:11.911Z,1148.00
2023-03-14T11:41:11.941Z,1164.00
2023-03-14T11:42:11.993Z,1147.00
2023-03-14T11:43:12.066Z,1145.00
2023-03-14T11:44:12.105Z,1142.00
2023-03-14T11:45:11.175Z,1179.00
2023-03-14T11:46:12.259Z,1166.00
2023-03-14T11:47:11.548Z,1181.00
2023-03-14T11:48:11.341Z,1176.00
2023-03-14T11:49:12.365Z,1162.00
2023-03-14T11:50:11.462Z,1147.00
2023-03-14T11:51:12.503Z,1150.00
2023-03-14T11:52:11.540Z,1140.00
2023-03-14T11:53:12.597Z,1154.00
2023-03-14T11:54:12.637Z,1142.00
2023-03-14T11:55:11.656Z,1147.00
2023-03-14T11:56:12.742Z,1142.00
2023-03-14T11:57:11.767Z,1142.00
2023-03-14T11:58:12.793Z,1133.00
2023-03-14T11:59:12.859Z,1117.00
2023-03-14T12:00:11.887Z,1118.00
2023-03-14T12:01:12.955Z,1118.00
2023-03-14T12:02:12.049Z,1103.00
2023-03-14T12:03:13.024Z,1107.00
2023-03-14T12:04:13.285Z,1105.00
2023-03-14T12:05:12.138Z,1106.00
2023-03-14T12:06:13.153Z,1109.00
2023-03-14T12:07:13.174Z,1090.00
2023-03-14T12:08:13.268Z,1083.00
2023-03-14T12:09:12.280Z,1079.00
2023-03-14T12:10:13.403Z,1090.00
2023-03-14T12:11:13.390Z,1068.00
2023-03-14T12:12:13.490Z,1078.00
2023-03-14T12:13:12.470Z,1062.00
2023-03-14T12:14:13.493Z,1052.00
2023-03-14T12:15:13.835Z,1043.00
2023-03-14T12:16:13.688Z,1038.00
2023-03-14T12:17:13.694Z,1036.00
2023-03-14T12:18:13.713Z,1032.00
2023-03-14T12:19:12.783Z,1018.00
2023-03-14T12:20:12.821Z,1016.00
2023-03-14T12:21:12.909Z,1028.00